sensor_id;sensor_type;location;lat;lon;timestamp;pressure;altitude;pressure_sealevel;temperature;humidity
50859;BME280;36826;47.514;19.056;2023-07-28T00:01:57;99746.28;;;29.51;28.25
50859;BME280;36826;47.514;19.056;2023-07-28T00:04:23;99743.16;;;29.32;28.43
50859;BME280;36826;47.514;19.056;2023-07-28T00:06:48;99747.19;;;28.50;29.73
50859;BME280;36826;47.514;19.056;2023-07-28T00:09:14;99750.38;;;28.74;29.54
50859;BME280;36826;47.514;19.056;2023-07-28T00:11:39;99743.78;;;29.44;28.64
50859;BME280;36826;47.514;19.056;2023-07-28T00:14:05;99744.00;;;29.32;28.70
50859;BME280;36826;47.514;19.056;2023-07-28T00:16:30;99730.22;;;29.32;28.89
50859;BME280;36826;47.514;19.056;2023-07-28T00:18:56;99734.38;;;28.71;29.63
50859;BME280;36826;47.514;19.056;2023-07-28T00:21:22;99738.88;;;28.40;30.26
50859;BME280;36826;47.514;19.056;2023-07-28T00:23:47;99735.84;;;27.21;31.72
50859;BME280;36826;47.514;19.056;2023-07-28T00:26:13;99741.47;;;27.86;31.12
50859;BME280;36826;47.514;19.056;2023-07-28T00:28:38;99734.75;;;28.42;30.27
50859;BME280;36826;47.514;19.056;2023-07-28T00:31:04;99739.78;;;27.85;30.89
50859;BME280;36826;47.514;19.056;2023-07-28T00:33:29;99737.84;;;27.81;31.33
50859;BME280;36826;47.514;19.056;2023-07-28T00:35:55;99730.28;;;28.31;30.30
50859;BME280;36826;47.514;19.056;2023-07-28T00:38:20;99730.16;;;28.15;30.38
50859;BME280;36826;47.514;19.056;2023-07-28T00:40:46;99735.84;;;28.41;29.93
50859;BME280;36826;47.514;19.056;2023-07-28T00:43:11;99735.00;;;28.41;30.39
50859;BME280;36826;47.514;19.056;2023-07-28T00:45:37;99729.66;;;28.24;30.63
50859;BME280;36826;47.514;19.056;2023-07-28T00:48:06;99731.81;;;29.18;29.54
50859;BME280;36826;47.514;19.056;2023-07-28T00:50:35;99727.13;;;28.12;30.71
50859;BME280;36826;47.514;19.056;2023-07-28T00:53:01;99724.63;;;27.50;31.70
50859;BME280;36826;47.514;19.056;2023-07-28T00:55:26;99724.72;;;27.61;32.01
50859;BME280;36826;47.514;19.056;2023-07-28T00:57:52;99723.13;;;27.65;31.95
50859;BME280;36826;47.514;19.056;2023-07-28T01:00:17;99722.69;;;27.78;31.47
50859;BME280;36826;47.514;19.056;2023-07-28T01:02:43;99729.72;;;27.41;32.06
50859;BME280;36826;47.514;19.056;2023-07-28T01:05:09;99721.13;;;28.20;31.21
50859;BME280;36826;47.514;19.056;2023-07-28T01:07:59;99716.50;;;29.63;29.35
50859;BME280;36826;47.514;19.056;2023-07-28T01:10:32;99718.06;;;29.23;29.84
50859;BME280;36826;47.514;19.056;2023-07-28T01:12:58;99710.34;;;28.61;30.63
50859;BME280;36826;47.514;19.056;2023-07-28T01:15:24;99721.03;;;28.10;31.26
50859;BME280;36826;47.514;19.056;2023-07-28T01:17:50;99714.63;;;27.44;32.53
50859;BME280;36826;47.514;19.056;2023-07-28T01:20:16;99712.03;;;28.20;31.50
50859;BME280;36826;47.514;19.056;2023-07-28T01:23:08;99719.91;;;28.91;30.55
50859;BME280;36826;47.514;19.056;2023-07-28T01:28:24;99709.72;;;28.97;30.54
50859;BME280;36826;47.514;19.056;2023-07-28T01:30:50;99709.63;;;28.76;30.74
50859;BME280;36826;47.514;19.056;2023-07-28T01:33:16;99704.09;;;28.76;30.48
50859;BME280;36826;47.514;19.056;2023-07-28T01:35:41;99696.88;;;28.65;30.57
50859;BME280;36826;47.514;19.056;2023-07-28T01:38:07;99706.69;;;27.75;32.04
50859;BME280;36826;47.514;19.056;2023-07-28T01:40:32;99701.84;;;28.68;30.59
50859;BME280;36826;47.514;19.056;2023-07-28T01:42:58;99701.50;;;29.28;29.80
50859;BME280;36826;47.514;19.056;2023-07-28T01:45:23;99709.66;;;28.87;30.03
50859;BME280;36826;47.514;19.056;2023-07-28T01:47:49;99706.50;;;28.68;29.98
50859;BME280;36826;47.514;19.056;2023-07-28T01:50:15;99696.56;;;28.61;30.48
50859;BME280;36826;47.514;19.056;2023-07-28T01:52:40;99703.13;;;28.50;30.37
50859;BME280;36826;47.514;19.056;2023-07-28T01:55:06;99700.28;;;28.88;30.02
50859;BME280;36826;47.514;19.056;2023-07-28T01:57:33;99703.59;;;28.90;30.33
50859;BME280;36826;47.514;19.056;2023-07-28T02:00:00;99697.72;;;28.23;30.86
50859;BME280;36826;47.514;19.056;2023-07-28T02:02:25;99701.13;;;28.93;30.21
50859;BME280;36826;47.514;19.056;2023-07-28T02:04:51;99702.22;;;28.92;29.84
50859;BME280;36826;47.514;19.056;2023-07-28T02:07:16;99695.41;;;29.11;29.74
50859;BME280;36826;47.514;19.056;2023-07-28T02:09:42;99697.22;;;28.74;30.42
50859;BME280;36826;47.514;19.056;2023-07-28T02:12:07;99709.94;;;28.37;30.69
50859;BME280;36826;47.514;19.056;2023-07-28T02:14:33;99702.91;;;28.57;30.55
50859;BME280;36826;47.514;19.056;2023-07-28T02:16:58;99707.22;;;28.47;30.78
50859;BME280;36826;47.514;19.056;2023-07-28T02:19:24;99703.47;;;28.59;30.78
50859;BME280;36826;47.514;19.056;2023-07-28T02:21:50;99698.81;;;28.22;31.28
50859;BME280;36826;47.514;19.056;2023-07-28T02:24:15;99694.72;;;27.92;31.59
50859;BME280;36826;47.514;19.056;2023-07-28T02:26:41;99705.59;;;27.76;32.05
50859;BME280;36826;47.514;19.056;2023-07-28T02:29:06;99704.22;;;27.74;32.06
50859;BME280;36826;47.514;19.056;2023-07-28T02:31:32;99702.34;;;27.79;32.15
50859;BME280;36826;47.514;19.056;2023-07-28T02:33:57;99697.44;;;28.19;31.48
50859;BME280;36826;47.514;19.056;2023-07-28T02:36:23;99702.91;;;27.26;33.09
50859;BME280;36826;47.514;19.056;2023-07-28T02:38:48;99699.38;;;27.91;31.91
50859;BME280;36826;47.514;19.056;2023-07-28T02:41:14;99689.16;;;28.19;31.26
50859;BME280;36826;47.514;19.056;2023-07-28T02:43:39;99683.16;;;27.57;32.32
50859;BME280;36826;47.514;19.056;2023-07-28T02:46:05;99688.59;;;27.84;31.73
50859;BME280;36826;47.514;19.056;2023-07-28T02:48:30;99690.50;;;27.24;32.83
50859;BME280;36826;47.514;19.056;2023-07-28T02:50:55;99695.09;;;27.68;32.08
50859;BME280;36826;47.514;19.056;2023-07-28T02:53:21;99692.81;;;27.60;32.08
50859;BME280;36826;47.514;19.056;2023-07-28T02:55:47;99696.09;;;26.62;33.75
50859;BME280;36826;47.514;19.056;2023-07-28T02:58:14;99698.31;;;27.60;32.56
50859;BME280;36826;47.514;19.056;2023-07-28T03:00:40;99700.63;;;27.73;32.07
50859;BME280;36826;47.514;19.056;2023-07-28T03:03:10;99698.78;;;27.51;32.89
50859;BME280;36826;47.514;19.056;2023-07-28T03:05:37;99691.00;;;27.76;32.61
50859;BME280;36826;47.514;19.056;2023-07-28T03:08:03;99696.25;;;27.22;33.20
50859;BME280;36826;47.514;19.056;2023-07-28T03:10:29;99694.16;;;27.30;33.07
50859;BME280;36826;47.514;19.056;2023-07-28T03:12:55;99687.72;;;27.74;32.69
50859;BME280;36826;47.514;19.056;2023-07-28T03:15:21;99687.34;;;27.65;32.59
50859;BME280;36826;47.514;19.056;2023-07-28T03:17:47;99684.97;;;27.19;33.20
50859;BME280;36826;47.514;19.056;2023-07-28T03:20:13;99682.59;;;26.61;34.11
50859;BME280;36826;47.514;19.056;2023-07-28T03:22:39;99695.06;;;27.40;33.02
50859;BME280;36826;47.514;19.056;2023-07-28T03:25:04;99691.75;;;27.98;32.08
50859;BME280;36826;47.514;19.056;2023-07-28T03:27:30;99687.94;;;27.67;32.30
50859;BME280;36826;47.514;19.056;2023-07-28T03:29:57;99674.56;;;26.99;33.30
50859;BME280;36826;47.514;19.056;2023-07-28T03:32:22;99667.34;;;26.70;33.80
50859;BME280;36826;47.514;19.056;2023-07-28T03:34:48;99659.91;;;26.26;34.40
50859;BME280;36826;47.514;19.056;2023-07-28T03:37:13;99667.59;;;26.69;33.86
50859;BME280;36826;47.514;19.056;2023-07-28T03:39:39;99675.88;;;27.73;32.45
50859;BME280;36826;47.514;19.056;2023-07-28T03:42:04;99679.88;;;27.93;32.05
50859;BME280;36826;47.514;19.056;2023-07-28T03:44:31;99680.56;;;27.73;32.38
50859;BME280;36826;47.514;19.056;2023-07-28T03:46:57;99682.06;;;27.58;32.37
50859;BME280;36826;47.514;19.056;2023-07-28T03:49:22;99689.44;;;27.52;32.51
50859;BME280;36826;47.514;19.056;2023-07-28T03:51:48;99683.16;;;27.57;32.25
50859;BME280;36826;47.514;19.056;2023-07-28T03:54:13;99688.00;;;26.95;32.98
50859;BME280;36826;47.514;19.056;2023-07-28T03:56:38;99687.31;;;27.60;32.39
50859;BME280;36826;47.514;19.056;2023-07-28T03:59:04;99694.16;;;28.27;31.37
50859;BME280;36826;47.514;19.056;2023-07-28T04:01:30;99689.31;;;28.02;31.27
50859;BME280;36826;47.514;19.056;2023-07-28T04:03:56;99690.41;;;28.39;30.59
50859;BME280;36826;47.514;19.056;2023-07-28T04:06:57;99692.69;;;30.66;27.82
50859;BME280;36826;47.514;19.056;2023-07-28T04:09:23;99691.31;;;30.48;27.98
50859;BME280;36826;47.514;19.056;2023-07-28T04:11:49;99696.38;;;29.78;28.27
50859;BME280;36826;47.514;19.056;2023-07-28T04:14:15;99700.50;;;29.60;28.78
50859;BME280;36826;47.514;19.056;2023-07-28T04:16:41;99700.78;;;29.84;28.26
50859;BME280;36826;47.514;19.056;2023-07-28T04:19:08;99703.25;;;29.45;28.83
50859;BME280;36826;47.514;19.056;2023-07-28T04:21:33;99710.94;;;29.43;28.77
50859;BME280;36826;47.514;19.056;2023-07-28T04:23:59;99701.59;;;29.64;28.57
50859;BME280;36826;47.514;19.056;2023-07-28T04:26:25;99704.38;;;29.69;28.31
50859;BME280;36826;47.514;19.056;2023-07-28T04:28:51;99700.53;;;29.96;28.09
50859;BME280;36826;47.514;19.056;2023-07-28T04:31:18;99701.63;;;29.75;28.37
50859;BME280;36826;47.514;19.056;2023-07-28T04:33:43;99705.91;;;29.24;28.69
50859;BME280;36826;47.514;19.056;2023-07-28T04:36:09;99698.28;;;29.36;28.88
50859;BME280;36826;47.514;19.056;2023-07-28T04:38:35;99699.13;;;29.52;28.48
50859;BME280;36826;47.514;19.056;2023-07-28T04:41:00;99701.88;;;29.68;28.23
50859;BME280;36826;47.514;19.056;2023-07-28T04:43:26;99704.38;;;29.59;28.30
50859;BME280;36826;47.514;19.056;2023-07-28T04:45:51;99688.47;;;28.98;29.17
50859;BME280;36826;47.514;19.056;2023-07-28T04:48:17;99678.06;;;28.46;29.93
50859;BME280;36826;47.514;19.056;2023-07-28T04:50:44;99672.56;;;29.31;28.91
50859;BME280;36826;47.514;19.056;2023-07-28T04:53:09;99678.22;;;28.77;29.86
50859;BME280;36826;47.514;19.056;2023-07-28T04:55:35;99669.91;;;28.19;30.40
50859;BME280;36826;47.514;19.056;2023-07-28T04:58:00;99674.72;;;28.44;30.26
50859;BME280;36826;47.514;19.056;2023-07-28T05:00:26;99677.19;;;29.04;29.63
50859;BME280;36826;47.514;19.056;2023-07-28T05:02:51;99680.31;;;28.65;30.42
50859;BME280;36826;47.514;19.056;2023-07-28T05:05:17;99678.97;;;29.93;28.53
50859;BME280;36826;47.514;19.056;2023-07-28T05:07:42;99683.69;;;30.95;27.31
50859;BME280;36826;47.514;19.056;2023-07-28T05:10:08;99688.16;;;32.39;25.76
50859;BME280;36826;47.514;19.056;2023-07-28T05:12:34;99694.69;;;32.73;24.46
50859;BME280;36826;47.514;19.056;2023-07-28T05:15:00;99682.91;;;32.86;24.41
50859;BME280;36826;47.514;19.056;2023-07-28T05:17:25;99679.19;;;34.20;23.01
50859;BME280;36826;47.514;19.056;2023-07-28T05:19:51;99683.34;;;33.37;23.62
50859;BME280;36826;47.514;19.056;2023-07-28T05:22:17;99674.47;;;33.54;23.49
50859;BME280;36826;47.514;19.056;2023-07-28T05:24:43;99675.00;;;33.18;24.49
50859;BME280;36826;47.514;19.056;2023-07-28T05:27:13;99671.09;;;33.57;23.96
50859;BME280;36826;47.514;19.056;2023-07-28T05:29:38;99669.78;;;33.35;23.32
50859;BME280;36826;47.514;19.056;2023-07-28T05:32:05;99670.56;;;32.98;24.02
50859;BME280;36826;47.514;19.056;2023-07-28T05:34:30;99685.91;;;32.90;24.33
50859;BME280;36826;47.514;19.056;2023-07-28T05:36:56;99693.13;;;33.29;23.87
50859;BME280;36826;47.514;19.056;2023-07-28T05:39:21;99699.25;;;32.39;25.15
50859;BME280;36826;47.514;19.056;2023-07-28T05:41:47;99694.66;;;32.54;24.89
50859;BME280;36826;47.514;19.056;2023-07-28T05:44:13;99687.75;;;32.51;25.01
50859;BME280;36826;47.514;19.056;2023-07-28T05:46:38;99705.81;;;31.85;25.77
50859;BME280;36826;47.514;19.056;2023-07-28T05:49:04;99703.69;;;33.08;24.72
50859;BME280;36826;47.514;19.056;2023-07-28T05:51:30;99700.59;;;32.12;25.65
50859;BME280;36826;47.514;19.056;2023-07-28T05:53:55;99715.91;;;30.49;27.86
50859;BME280;36826;47.514;19.056;2023-07-28T05:56:21;99718.56;;;30.85;27.35
50859;BME280;36826;47.514;19.056;2023-07-28T05:58:47;99724.25;;;30.03;28.33
50859;BME280;36826;47.514;19.056;2023-07-28T06:01:13;99715.69;;;30.14;28.49
50859;BME280;36826;47.514;19.056;2023-07-28T06:03:39;99724.13;;;31.41;26.94
50859;BME280;36826;47.514;19.056;2023-07-28T06:06:04;99720.53;;;31.40;26.34
50859;BME280;36826;47.514;19.056;2023-07-28T06:08:30;99734.94;;;31.82;26.42
50859;BME280;36826;47.514;19.056;2023-07-28T06:10:56;99726.75;;;32.01;25.90
50859;BME280;36826;47.514;19.056;2023-07-28T06:13:21;99723.00;;;32.70;24.98
50859;BME280;36826;47.514;19.056;2023-07-28T06:15:46;99725.16;;;31.95;25.66
50859;BME280;36826;47.514;19.056;2023-07-28T06:18:12;99722.00;;;33.09;24.77
50859;BME280;36826;47.514;19.056;2023-07-28T06:20:37;99720.84;;;33.54;23.96
50859;BME280;36826;47.514;19.056;2023-07-28T06:23:03;99724.59;;;34.29;23.31
50859;BME280;36826;47.514;19.056;2023-07-28T06:25:28;99728.56;;;33.76;24.24
50859;BME280;36826;47.514;19.056;2023-07-28T06:27:55;99721.59;;;33.40;24.27
50859;BME280;36826;47.514;19.056;2023-07-28T06:30:21;99711.44;;;34.35;23.26
50859;BME280;36826;47.514;19.056;2023-07-28T06:32:46;99722.63;;;32.82;24.88
50859;BME280;36826;47.514;19.056;2023-07-28T06:35:12;99730.75;;;34.26;23.65
50859;BME280;36826;47.514;19.056;2023-07-28T06:37:37;99725.53;;;34.38;23.26
50859;BME280;36826;47.514;19.056;2023-07-28T06:40:05;99725.25;;;36.37;21.70
50859;BME280;36826;47.514;19.056;2023-07-28T06:42:33;99729.47;;;37.33;20.60
50859;BME280;36826;47.514;19.056;2023-07-28T06:44:58;99731.13;;;37.78;19.73
50859;BME280;36826;47.514;19.056;2023-07-28T06:47:24;99724.84;;;36.53;21.25
50859;BME280;36826;47.514;19.056;2023-07-28T06:49:49;99721.31;;;35.25;22.13
50859;BME280;36826;47.514;19.056;2023-07-28T06:52:15;99717.63;;;35.15;22.36
50859;BME280;36826;47.514;19.056;2023-07-28T06:54:41;99715.34;;;33.29;24.56
50859;BME280;36826;47.514;19.056;2023-07-28T06:57:06;99709.81;;;31.73;26.40
50859;BME280;36826;47.514;19.056;2023-07-28T06:59:33;99705.28;;;33.91;24.55
50859;BME280;36826;47.514;19.056;2023-07-28T07:02:00;99693.13;;;33.29;24.94
50859;BME280;36826;47.514;19.056;2023-07-28T07:04:26;99690.03;;;34.77;23.29
50859;BME280;36826;47.514;19.056;2023-07-28T07:06:51;99684.53;;;38.65;19.20
50859;BME280;36826;47.514;19.056;2023-07-28T07:09:17;99689.44;;;40.78;17.25
50859;BME280;36826;47.514;19.056;2023-07-28T07:11:43;99680.38;;;37.06;19.77
50859;BME280;36826;47.514;19.056;2023-07-28T07:14:08;99687.28;;;37.52;20.16
50859;BME280;36826;47.514;19.056;2023-07-28T07:16:34;99687.34;;;39.16;18.47
50859;BME280;36826;47.514;19.056;2023-07-28T07:18:59;99688.59;;;40.41;17.07
50859;BME280;36826;47.514;19.056;2023-07-28T07:21:27;99686.63;;;38.47;19.12
50859;BME280;36826;47.514;19.056;2023-07-28T07:23:52;99683.50;;;37.57;19.79
50859;BME280;36826;47.514;19.056;2023-07-28T07:26:18;99684.63;;;36.94;20.14
50859;BME280;36826;47.514;19.056;2023-07-28T07:28:43;99684.59;;;36.85;20.41
50859;BME280;36826;47.514;19.056;2023-07-28T07:31:15;99671.97;;;35.85;21.87
50859;BME280;36826;47.514;19.056;2023-07-28T07:33:41;99677.81;;;35.29;22.84
50859;BME280;36826;47.514;19.056;2023-07-28T07:36:13;99668.56;;;36.51;21.21
50859;BME280;36826;47.514;19.056;2023-07-28T07:38:39;99677.06;;;34.59;23.11
50859;BME280;36826;47.514;19.056;2023-07-28T07:41:06;99675.59;;;34.19;23.47
50859;BME280;36826;47.514;19.056;2023-07-28T07:43:32;99668.09;;;34.48;23.48
50859;BME280;36826;47.514;19.056;2023-07-28T07:45:59;99668.06;;;35.86;21.40
50859;BME280;36826;47.514;19.056;2023-07-28T07:48:24;99671.03;;;36.44;21.05
50859;BME280;36826;47.514;19.056;2023-07-28T07:50:51;99667.16;;;38.03;19.51
50859;BME280;36826;47.514;19.056;2023-07-28T07:53:16;99672.63;;;36.04;20.96
50859;BME280;36826;47.514;19.056;2023-07-28T07:55:42;99652.84;;;35.24;21.91
50859;BME280;36826;47.514;19.056;2023-07-28T07:58:08;99665.13;;;35.23;21.93
50859;BME280;36826;47.514;19.056;2023-07-28T08:00:37;99660.81;;;35.53;21.91
50859;BME280;36826;47.514;19.056;2023-07-28T08:03:03;99667.72;;;35.42;22.04
50859;BME280;36826;47.514;19.056;2023-07-28T08:05:30;99661.59;;;35.31;22.08
50859;BME280;36826;47.514;19.056;2023-07-28T08:07:56;99658.34;;;35.52;21.53
50859;BME280;36826;47.514;19.056;2023-07-28T08:10:22;99663.31;;;35.86;21.87
50859;BME280;36826;47.514;19.056;2023-07-28T08:12:48;99677.25;;;34.62;22.96
50859;BME280;36826;47.514;19.056;2023-07-28T08:15:13;99671.47;;;34.31;23.37
50859;BME280;36826;47.514;19.056;2023-07-28T08:17:39;99680.72;;;34.12;23.46
50859;BME280;36826;47.514;19.056;2023-07-28T08:20:06;99666.75;;;35.01;22.87
50859;BME280;36826;47.514;19.056;2023-07-28T08:22:32;99664.56;;;33.67;23.93
50859;BME280;36826;47.514;19.056;2023-07-28T08:24:58;99673.72;;;33.48;24.16
50859;BME280;36826;47.514;19.056;2023-07-28T08:27:23;99668.53;;;34.55;23.41
50859;BME280;36826;47.514;19.056;2023-07-28T08:29:49;99674.94;;;35.20;22.62
50859;BME280;36826;47.514;19.056;2023-07-28T08:32:21;99671.53;;;33.26;24.67
50859;BME280;36826;47.514;19.056;2023-07-28T08:34:47;99666.34;;;33.58;24.35
50859;BME280;36826;47.514;19.056;2023-07-28T08:37:13;99667.56;;;34.73;23.25
50859;BME280;36826;47.514;19.056;2023-07-28T08:39:39;99656.44;;;34.32;23.31
50859;BME280;36826;47.514;19.056;2023-07-28T08:42:05;99663.34;;;35.04;22.94
50859;BME280;36826;47.514;19.056;2023-07-28T08:44:31;99657.78;;;36.67;21.44
50859;BME280;36826;47.514;19.056;2023-07-28T08:46:58;99651.16;;;37.47;19.89
50859;BME280;36826;47.514;19.056;2023-07-28T08:49:24;99652.38;;;39.01;19.05
50859;BME280;36826;47.514;19.056;2023-07-28T08:51:50;99647.47;;;39.40;18.39
50859;BME280;36826;47.514;19.056;2023-07-28T08:54:16;99637.19;;;39.44;18.09
50859;BME280;36826;47.514;19.056;2023-07-28T08:56:43;99637.72;;;39.04;18.17
50859;BME280;36826;47.514;19.056;2023-07-28T08:59:09;99634.81;;;39.34;18.27
50859;BME280;36826;47.514;19.056;2023-07-28T09:01:41;99603.75;;;39.27;17.99
50859;BME280;36826;47.514;19.056;2023-07-28T09:04:11;99618.72;;;38.89;18.19
50859;BME280;36826;47.514;19.056;2023-07-28T09:06:37;99616.34;;;40.75;16.95
50859;BME280;36826;47.514;19.056;2023-07-28T09:09:07;99612.13;;;42.79;15.36
50859;BME280;36826;47.514;19.056;2023-07-28T09:11:51;99620.03;;;45.02;13.51
50859;BME280;36826;47.514;19.056;2023-07-28T09:14:20;99613.31;;;47.12;12.44
50859;BME280;36826;47.514;19.056;2023-07-28T09:16:48;99614.41;;;45.36;13.54
50859;BME280;36826;47.514;19.056;2023-07-28T09:19:14;99606.88;;;41.65;16.08
50859;BME280;36826;47.514;19.056;2023-07-28T09:21:43;99607.84;;;41.40;16.27
50859;BME280;36826;47.514;19.056;2023-07-28T09:24:12;99613.16;;;42.90;15.31
50859;BME280;36826;47.514;19.056;2023-07-28T09:26:43;99623.69;;;43.32;15.11
50859;BME280;36826;47.514;19.056;2023-07-28T09:29:14;99621.03;;;43.40;14.97
50859;BME280;36826;47.514;19.056;2023-07-28T09:31:41;99611.81;;;44.36;14.20
50859;BME280;36826;47.514;19.056;2023-07-28T09:34:07;99621.38;;;42.11;16.18
50859;BME280;36826;47.514;19.056;2023-07-28T09:36:34;99622.59;;;39.72;17.87
50859;BME280;36826;47.514;19.056;2023-07-28T09:39:01;99617.25;;;39.80;18.33
50859;BME280;36826;47.514;19.056;2023-07-28T09:41:29;99611.78;;;39.96;17.71
50859;BME280;36826;47.514;19.056;2023-07-28T09:43:56;99612.06;;;38.72;19.14
50859;BME280;36826;47.514;19.056;2023-07-28T09:46:22;99622.19;;;42.28;16.30
50859;BME280;36826;47.514;19.056;2023-07-28T09:48:52;99611.50;;;41.29;16.73
50859;BME280;36826;47.514;19.056;2023-07-28T09:51:22;99615.06;;;41.13;17.17
50859;BME280;36826;47.514;19.056;2023-07-28T09:53:59;99615.88;;;40.11;18.09
50859;BME280;36826;47.514;19.056;2023-07-28T09:56:30;99608.88;;;40.54;17.76
50859;BME280;36826;47.514;19.056;2023-07-28T09:58:57;99601.50;;;38.99;19.27
50859;BME280;36826;47.514;19.056;2023-07-28T10:01:23;99602.09;;;38.62;19.97
50859;BME280;36826;47.514;19.056;2023-07-28T10:03:49;99598.91;;;40.82;18.07
50859;BME280;36826;47.514;19.056;2023-07-28T10:06:16;99601.66;;;43.18;16.09
50859;BME280;36826;47.514;19.056;2023-07-28T10:08:44;99600.69;;;44.43;14.63
50859;BME280;36826;47.514;19.056;2023-07-28T10:11:12;99608.66;;;44.95;14.53
50859;BME280;36826;47.514;19.056;2023-07-28T10:13:43;99604.47;;;43.18;15.85
50859;BME280;36826;47.514;19.056;2023-07-28T10:16:09;99598.97;;;43.45;15.59
50859;BME280;36826;47.514;19.056;2023-07-28T10:18:36;99592.09;;;43.43;15.32
50859;BME280;36826;47.514;19.056;2023-07-28T10:21:07;99592.13;;;44.39;14.36
50859;BME280;36826;47.514;19.056;2023-07-28T10:23:35;99599.28;;;43.83;15.08
50859;BME280;36826;47.514;19.056;2023-07-28T10:26:03;99601.38;;;43.04;15.64
50859;BME280;36826;47.514;19.056;2023-07-28T10:28:32;99600.56;;;43.03;15.55
50859;BME280;36826;47.514;19.056;2023-07-28T10:31:04;99595.34;;;42.66;15.75
50859;BME280;36826;47.514;19.056;2023-07-28T10:33:39;99596.97;;;40.98;17.21
50859;BME280;36826;47.514;19.056;2023-07-28T10:36:12;99600.34;;;39.21;19.20
50859;BME280;36826;47.514;19.056;2023-07-28T10:38:39;99591.09;;;39.21;19.53
50859;BME280;36826;47.514;19.056;2023-07-28T10:41:27;99595.22;;;41.06;17.58
50859;BME280;36826;47.514;19.056;2023-07-28T10:43:54;99599.19;;;39.01;19.62
50859;BME280;36826;47.514;19.056;2023-07-28T10:46:21;99587.94;;;39.31;19.53
50859;BME280;36826;47.514;19.056;2023-07-28T10:48:48;99583.97;;;39.91;19.08
50859;BME280;36826;47.514;19.056;2023-07-28T10:51:26;99595.66;;;39.93;19.02
50859;BME280;36826;47.514;19.056;2023-07-28T10:53:58;99599.03;;;39.86;19.15
50859;BME280;36826;47.514;19.056;2023-07-28T10:56:24;99595.31;;;39.48;19.36
50859;BME280;36826;47.514;19.056;2023-07-28T10:59:01;99601.28;;;40.17;19.20
50859;BME280;36826;47.514;19.056;2023-07-28T11:01:34;99592.63;;;40.47;18.88
50859;BME280;36826;47.514;19.056;2023-07-28T11:04:20;99584.81;;;40.41;18.99
50859;BME280;36826;47.514;19.056;2023-07-28T11:06:47;99595.34;;;40.44;19.09
50859;BME280;36826;47.514;19.056;2023-07-28T11:09:15;99593.59;;;40.92;18.39
50859;BME280;36826;47.514;19.056;2023-07-28T11:11:42;99588.53;;;39.16;20.02
50859;BME280;36826;47.514;19.056;2023-07-28T11:14:16;99576.66;;;38.76;20.18
50859;BME280;36826;47.514;19.056;2023-07-28T11:16:42;99594.22;;;39.28;20.20
50859;BME280;36826;47.514;19.056;2023-07-28T11:19:12;99583.97;;;38.90;20.78
50859;BME280;36826;47.514;19.056;2023-07-28T11:21:43;99584.25;;;39.52;20.08
50859;BME280;36826;47.514;19.056;2023-07-28T11:24:10;99589.09;;;39.30;20.37
50859;BME280;36826;47.514;19.056;2023-07-28T11:26:38;99587.56;;;39.11;20.09
50859;BME280;36826;47.514;19.056;2023-07-28T11:29:04;99576.81;;;39.68;19.78
50859;BME280;36826;47.514;19.056;2023-07-28T11:31:31;99586.19;;;38.15;21.60
50859;BME280;36826;47.514;19.056;2023-07-28T11:33:59;99592.03;;;39.92;19.73
50859;BME280;36826;47.514;19.056;2023-07-28T11:36:26;99586.22;;;40.34;19.25
50859;BME280;36826;47.514;19.056;2023-07-28T11:38:53;99578.50;;;39.48;20.07
50859;BME280;36826;47.514;19.056;2023-07-28T11:41:20;99584.53;;;39.84;19.73
50859;BME280;36826;47.514;19.056;2023-07-28T11:43:50;99580.84;;;40.42;19.32
50859;BME280;36826;47.514;19.056;2023-07-28T11:46:41;99570.94;;;41.42;18.50
50859;BME280;36826;47.514;19.056;2023-07-28T11:49:17;99567.53;;;41.65;17.95
50859;BME280;36826;47.514;19.056;2023-07-28T11:51:51;99577.03;;;40.75;18.76
50859;BME280;36826;47.514;19.056;2023-07-28T11:54:20;99572.91;;;40.31;18.14
50859;BME280;36826;47.514;19.056;2023-07-28T11:56:48;99569.97;;;40.53;18.44
50859;BME280;36826;47.514;19.056;2023-07-28T11:59:20;99571.75;;;40.86;17.95
50859;BME280;36826;47.514;19.056;2023-07-28T12:02:00;99570.97;;;40.60;18.42
50859;BME280;36826;47.514;19.056;2023-07-28T12:04:27;99564.34;;;40.15;18.74
50859;BME280;36826;47.514;19.056;2023-07-28T12:07:17;99553.66;;;39.71;18.99
50859;BME280;36826;47.514;19.056;2023-07-28T12:12:12;99550.69;;;40.01;19.01
50859;BME280;36826;47.514;19.056;2023-07-28T12:14:41;99547.66;;;40.31;18.88
50859;BME280;36826;47.514;19.056;2023-07-28T12:17:25;99547.50;;;40.65;18.98
50859;BME280;36826;47.514;19.056;2023-07-28T12:20:06;99547.16;;;39.67;19.67
50859;BME280;36826;47.514;19.056;2023-07-28T12:22:41;99550.22;;;40.12;19.46
50859;BME280;36826;47.514;19.056;2023-07-28T12:25:08;99546.25;;;39.76;19.85
50859;BME280;36826;47.514;19.056;2023-07-28T12:27:34;99544.53;;;39.37;20.10
50859;BME280;36826;47.514;19.056;2023-07-28T12:30:01;99544.84;;;40.31;19.40
50859;BME280;36826;47.514;19.056;2023-07-28T12:32:27;99549.28;;;40.45;19.38
50859;BME280;36826;47.514;19.056;2023-07-28T12:34:53;99529.84;;;40.64;18.95
50859;BME280;36826;47.514;19.056;2023-07-28T12:37:20;99531.03;;;39.64;19.92
50859;BME280;36826;47.514;19.056;2023-07-28T12:39:46;99541.72;;;40.61;19.16
50859;BME280;36826;47.514;19.056;2023-07-28T12:42:12;99530.13;;;39.85;19.55
50859;BME280;36826;47.514;19.056;2023-07-28T12:44:38;99534.41;;;40.44;19.16
50859;BME280;36826;47.514;19.056;2023-07-28T12:47:04;99527.28;;;39.26;20.33
50859;BME280;36826;47.514;19.056;2023-07-28T12:49:30;99523.19;;;39.45;20.22
50859;BME280;36826;47.514;19.056;2023-07-28T12:51:57;99529.09;;;40.27;19.26
50859;BME280;36826;47.514;19.056;2023-07-28T12:54:23;99525.25;;;39.82;19.40
50859;BME280;36826;47.514;19.056;2023-07-28T12:56:49;99525.25;;;39.82;19.51